createdAt,value
2018-06-12T00:00:39.587Z,93.80
2018-06-12T00:03:08.577Z,93.80
2018-06-12T00:05:37.554Z,93.80
2018-06-12T00:08:06.583Z,93.80
2018-06-12T00:10:35.590Z,93.80
2018-06-12T00:13:04.627Z,93.80
2018-06-12T00:15:33.599Z,93.80
2018-06-12T00:18:02.634Z,93.80
2018-06-12T00:20:31.690Z,93.80
2018-06-12T00:23:01.326Z,93.80
2018-06-12T00:25:30.314Z,93.80
2018-06-12T00:28:00.498Z,93.80
2018-06-12T00:30:31.822Z,93.90
2018-06-12T00:33:01.139Z,93.90
2018-06-12T00:35:30.098Z,93.90
2018-06-12T00:37:59.105Z,93.90
2018-06-12T00:40:28.134Z,93.90
2018-06-12T00:42:57.202Z,93.90
2018-06-12T00:45:26.271Z,94.30
2018-06-12T00:47:57.564Z,93.90
2018-06-12T00:50:26.531Z,93.90
2018-06-12T00:52:56.275Z,93.90
2018-06-12T00:55:25.271Z,93.90
2018-06-12T00:57:54.828Z,93.90
2018-06-12T01:00:26.066Z,93.90
2018-06-12T01:02:55.206Z,93.90
2018-06-12T01:05:24.170Z,93.90
2018-06-12T01:07:53.135Z,93.90
2018-06-12T01:10:22.139Z,94.00
2018-06-12T01:12:51.098Z,93.90
2018-06-12T01:15:20.090Z,94.30
2018-06-12T01:17:49.046Z,93.90
2018-06-12T01:20:18.064Z,93.90
2018-06-12T01:22:48.055Z,93.90
2018-06-12T01:25:17.075Z,93.90
2018-06-12T01:27:46.046Z,93.90
2018-06-12T01:30:15.071Z,93.90
2018-06-12T01:32:44.038Z,93.90
2018-06-12T01:35:13.035Z,93.90
2018-06-12T01:37:42.010Z,93.90
2018-06-12T01:40:11.018Z,93.90
2018-06-12T01:42:39.978Z,93.80
2018-06-12T01:47:37.541Z,93.80
2018-06-12T01:50:06.593Z,93.80
2018-06-12T01:52:35.555Z,93.80
2018-06-12T01:55:04.587Z,93.90
2018-06-12T01:57:33.557Z,93.90
2018-06-12T02:00:02.564Z,93.90
2018-06-12T02:02:31.545Z,93.90
2018-06-12T02:05:00.534Z,93.90
2018-06-12T02:07:29.479Z,93.90
2018-06-12T02:09:58.459Z,93.90
2018-06-12T02:12:27.439Z,93.90
2018-06-12T02:14:56.439Z,94.00
2018-06-12T02:17:25.408Z,94.00
2018-06-12T02:19:54.431Z,94.00
2018-06-12T02:22:23.395Z,94.00
2018-06-12T02:24:52.418Z,94.00
2018-06-12T02:27:21.382Z,94.10
2018-06-12T02:29:50.388Z,94.10
2018-06-12T02:32:19.393Z,94.00
2018-06-12T02:34:48.411Z,94.10
2018-06-12T02:37:17.370Z,94.10
2018-06-12T02:39:46.375Z,94.10
2018-06-12T02:42:15.344Z,94.10
2018-06-12T02:44:44.331Z,94.50
2018-06-12T02:47:13.371Z,94.10
2018-06-12T02:49:42.435Z,94.10
2018-06-12T02:52:11.503Z,94.10
2018-06-12T02:54:40.539Z,94.00
2018-06-12T02:57:09.521Z,93.90
2018-06-12T02:59:38.511Z,93.90
2018-06-12T03:02:07.474Z,93.80
2018-06-12T03:04:36.463Z,93.80
2018-06-12T03:07:05.459Z,93.70
2018-06-12T03:09:34.446Z,93.60
2018-06-12T03:12:03.415Z,93.60
2018-06-12T03:14:32.412Z,93.60
2018-06-12T03:17:01.399Z,93.50
2018-06-12T03:19:30.397Z,93.50
2018-06-12T03:21:59.366Z,93.40
2018-06-12T03:24:28.391Z,93.40
2018-06-12T03:26:58.862Z,93.30
2018-06-12T03:29:27.847Z,93.40
2018-06-12T03:31:56.845Z,93.30
2018-06-12T03:34:29.390Z,93.30
2018-06-12T03:36:58.380Z,93.40
2018-06-12T03:39:27.353Z,93.30
2018-06-12T03:41:56.308Z,93.30
2018-06-12T03:44:25.279Z,93.20
2018-06-12T03:46:54.291Z,93.20
2018-06-12T03:49:23.270Z,93.20
2018-06-12T03:51:52.258Z,93.10
2018-06-12T03:54:21.254Z,93.10
2018-06-12T03:56:50.254Z,93.20
2018-06-12T03:59:19.238Z,93.10
2018-06-12T04:01:48.254Z,93.20
2018-06-12T04:04:17.251Z,93.20
2018-06-12T04:06:48.040Z,93.20
2018-06-12T04:09:17.001Z,93.30
2018-06-12T04:11:45.991Z,93.20
2018-06-12T04:14:14.957Z,93.30
2018-06-12T04:16:43.954Z,93.30
2018-06-12T04:19:12.918Z,93.70
2018-06-12T04:21:41.928Z,93.40
2018-06-12T04:24:10.899Z,93.60
2018-06-12T04:26:39.889Z,93.60
2018-06-12T04:29:09.982Z,93.60
2018-06-12T04:37:24.362Z,93.60
2018-06-12T04:39:53.318Z,93.70
2018-06-12T04:42:22.333Z,93.70
2018-06-12T04:44:51.333Z,93.70
2018-06-12T04:47:20.319Z,93.70
2018-06-12T04:52:17.983Z,93.70
2018-06-12T04:54:46.980Z,93.70
2018-06-12T04:57:15.974Z,93.60
2018-06-12T04:59:44.935Z,93.70
2018-06-12T05:02:13.933Z,93.60
2018-06-12T05:04:42.915Z,93.50
2018-06-12T05:07:11.920Z,93.50
2018-06-12T05:09:40.883Z,93.40
2018-06-12T05:12:09.978Z,93.40
2018-06-12T05:14:39.079Z,93.30
2018-06-12T05:17:08.099Z,93.30
2018-06-12T05:19:37.310Z,93.20
2018-06-12T05:22:06.594Z,93.20
2018-06-12T05:24:35.558Z,93.10
2018-06-12T05:27:04.671Z,93.10
2018-06-12T05:29:33.650Z,93.10
2018-06-12T05:32:02.657Z,93.10
2018-06-12T05:34:31.642Z,93.00
2018-06-12T05:37:00.665Z,93.00
2018-06-12T05:39:29.682Z,93.00
2018-06-12T05:41:58.700Z,93.00
2018-06-12T05:44:27.654Z,93.00
2018-06-12T05:46:56.794Z,93.00
2018-06-12T05:49:25.756Z,93.00
2018-06-12T05:51:54.754Z,93.00
2018-06-12T05:54:23.717Z,93.10
2018-06-12T05:56:52.746Z,93.10
2018-06-12T05:59:21.698Z,93.10
2018-06-12T06:01:50.725Z,93.10
2018-06-12T06:04:25.932Z,93.10
2018-06-12T06:06:55.625Z,93.10
2018-06-12T06:09:24.647Z,93.10
2018-06-12T06:11:53.651Z,93.10
2018-06-12T06:14:23.304Z,93.10
2018-06-12T06:16:52.413Z,93.10
2018-06-12T06:19:22.078Z,93.00
2018-06-12T06:21:51.159Z,93.00
2018-06-12T06:24:20.153Z,93.00
2018-06-12T06:26:49.147Z,92.90
2018-06-12T06:29:18.115Z,92.90
2018-06-12T06:31:48.263Z,92.90
2018-06-12T06:34:18.082Z,92.90
2018-06-12T06:36:47.086Z,92.80
2018-06-12T06:39:16.034Z,92.80
2018-06-12T06:41:45.039Z,92.70
2018-06-12T06:44:14.039Z,92.60
2018-06-12T06:46:43.015Z,92.90
2018-06-12T06:49:12.020Z,92.50
2018-06-12T06:51:40.994Z,92.50
2018-06-12T06:54:09.995Z,92.50
2018-06-12T06:56:39.040Z,92.60
2018-06-12T06:59:08.071Z,92.60
2018-06-12T07:01:37.030Z,92.50
2018-06-12T07:06:34.546Z,92.60
2018-06-12T07:09:03.836Z,92.50
2018-06-12T07:11:32.912Z,92.40
2018-06-12T07:14:01.908Z,92.40
2018-06-12T07:16:30.975Z,92.40
2018-06-12T07:19:00.068Z,92.50
2018-06-12T07:21:29.043Z,92.60
2018-06-12T07:23:58.035Z,92.50
2018-06-12T07:26:27.331Z,92.50
2018-06-12T07:28:56.325Z,92.50
2018-06-12T07:31:25.286Z,92.50
2018-06-12T07:33:54.337Z,92.50
2018-06-12T07:36:23.362Z,92.50
2018-06-12T07:38:55.512Z,92.50
2018-06-12T07:41:24.718Z,92.50
2018-06-12T07:43:53.672Z,92.50
2018-06-12T07:46:22.679Z,92.50
2018-06-12T07:48:51.651Z,92.60
2018-06-12T07:51:23.627Z,92.60
2018-06-12T07:53:52.671Z,92.60
2018-06-12T07:56:21.654Z,92.70
2018-06-12T07:58:50.650Z,92.70
2018-06-12T08:01:19.651Z,92.80
2018-06-12T08:03:48.639Z,92.80
2018-06-12T08:06:17.635Z,92.80
2018-06-12T08:08:46.598Z,92.80
2018-06-12T08:11:15.585Z,92.80
2018-06-12T08:13:44.542Z,93.10
2018-06-12T08:16:14.315Z,92.60
2018-06-12T08:18:43.279Z,92.60
2018-06-12T08:21:12.274Z,92.50
2018-06-12T08:23:41.254Z,92.40
2018-06-12T08:26:10.262Z,92.30
2018-06-12T08:28:45.736Z,92.40
2018-06-12T08:31:14.779Z,92.30
2018-06-12T08:33:45.758Z,92.30
2018-06-12T08:36:14.877Z,92.30
2018-06-12T08:38:43.839Z,92.20
2018-06-12T08:41:12.827Z,92.20
2018-06-12T08:43:41.790Z,92.20
2018-06-12T08:46:11.679Z,92.10
2018-06-12T08:48:40.638Z,92.00
2018-06-12T08:51:09.657Z,91.90
2018-06-12T08:53:38.627Z,91.90
2018-06-12T08:56:07.646Z,91.90
2018-06-12T08:58:36.682Z,91.90
2018-06-12T09:01:05.710Z,92.00
2018-06-12T09:03:34.683Z,92.00
2018-06-12T09:06:03.759Z,91.70
2018-06-12T09:08:32.739Z,91.70
2018-06-12T09:11:01.747Z,91.70
2018-06-12T09:13:30.718Z,91.70
2018-06-12T09:15:59.715Z,91.70
2018-06-12T09:18:32.684Z,91.50
2018-06-12T09:21:01.758Z,91.50
2018-06-12T09:23:30.742Z,91.40
2018-06-12T09:25:59.779Z,91.30
2018-06-12T09:28:28.747Z,91.30
2018-06-12T09:30:57.756Z,91.10
2018-06-12T09:33:26.731Z,91.10
2018-06-12T09:35:59.870Z,90.80
2018-06-12T09:38:28.824Z,90.60
2018-06-12T09:40:57.859Z,90.30
2018-06-12T09:43:26.822Z,90.20
2018-06-12T09:45:58.315Z,90.30
2018-06-12T09:48:27.402Z,90.40
2018-06-12T09:50:56.410Z,90.50
2018-06-12T09:53:25.386Z,90.40
2018-06-12T09:55:54.387Z,90.40
2018-06-12T09:58:23.481Z,90.20
2018-06-12T10:00:57.827Z,90.10
2018-06-12T10:03:27.148Z,90.40
2018-06-12T10:05:56.851Z,90.10
2018-06-12T10:08:25.967Z,90.00
2018-06-12T10:10:54.961Z,89.80
2018-06-12T10:13:23.931Z,89.70
2018-06-12T10:15:52.935Z,89.60
2018-06-12T10:18:21.919Z,89.30
2018-06-12T10:20:51.978Z,89.30
2018-06-12T10:23:23.711Z,89.30
2018-06-12T10:25:52.718Z,88.70
2018-06-12T10:28:22.188Z,88.10
2018-06-12T10:30:51.243Z,88.20
2018-06-12T10:33:21.577Z,87.90
2018-06-12T10:35:50.593Z,88.00
2018-06-12T10:38:19.871Z,88.50
2018-06-12T10:40:48.858Z,88.00
2018-06-12T10:43:17.862Z,87.80
2018-06-12T10:45:46.842Z,87.30
2018-06-12T10:48:16.202Z,87.10
2018-06-12T10:50:45.618Z,87.40
2018-06-12T10:53:14.607Z,87.50
2018-06-12T10:55:43.566Z,87.10
2018-06-12T10:58:12.555Z,86.90
2018-06-12T11:00:41.594Z,86.80
2018-06-12T11:03:10.655Z,86.90
2018-06-12T11:05:39.658Z,87.20
2018-06-12T11:08:08.739Z,87.10
2018-06-12T11:10:37.713Z,87.10
2018-06-12T11:13:06.715Z,87.80
2018-06-12T11:15:35.682Z,86.10
2018-06-12T11:18:04.711Z,85.40
2018-06-12T11:20:33.694Z,84.40
2018-06-12T11:23:02.713Z,84.10
2018-06-12T11:25:31.686Z,83.70
2018-06-12T11:28:00.688Z,83.60
2018-06-12T11:30:30.798Z,83.50
2018-06-12T11:32:59.817Z,83.30
2018-06-12T11:35:28.783Z,82.90
2018-06-12T11:37:57.796Z,82.90
2018-06-12T11:40:27.154Z,83.20
2018-06-12T11:42:57.871Z,83.00
2018-06-12T11:45:26.867Z,81.90
2018-06-12T11:47:55.894Z,81.00
2018-06-12T11:50:25.410Z,80.60
2018-06-12T11:52:57.330Z,80.80
2018-06-12T11:55:26.306Z,79.00
2018-06-12T11:57:55.303Z,79.00
2018-06-12T12:00:24.276Z,79.60
2018-06-12T12:02:53.281Z,80.00
2018-06-12T12:05:22.264Z,79.80
2018-06-12T12:07:51.310Z,80.00
2018-06-12T12:10:20.310Z,80.20
2018-06-12T12:12:49.273Z,80.40
2018-06-12T12:15:18.294Z,80.70
2018-06-12T12:17:47.310Z,81.30
2018-06-12T12:20:16.279Z,81.60
2018-06-12T12:22:45.286Z,81.30
2018-06-12T12:25:14.335Z,80.90
2018-06-12T12:27:43.336Z,80.80
2018-06-12T12:30:12.581Z,81.00
2018-06-12T12:32:41.864Z,81.20
2018-06-12T12:35:11.084Z,81.30
2018-06-12T12:37:40.353Z,81.60
2018-06-12T12:40:09.638Z,81.80
2018-06-12T12:42:38.845Z,81.40
2018-06-12T12:45:08.136Z,80.90
2018-06-12T12:47:37.152Z,80.90
2018-06-12T12:50:06.175Z,80.90
2018-06-12T12:52:35.275Z,81.00
2018-06-12T12:55:04.518Z,81.20
2018-06-12T12:57:33.823Z,81.00
2018-06-12T13:00:03.131Z,81.30
2018-06-12T13:02:32.451Z,81.30
2018-06-12T13:05:02.354Z,80.90
2018-06-12T13:07:31.894Z,80.20
2018-06-12T13:10:01.154Z,80.00
2018-06-12T13:12:31.439Z,80.10
2018-06-12T13:15:00.459Z,80.00
2018-06-12T13:17:29.546Z,79.80
2018-06-12T13:19:58.558Z,79.00
2018-06-12T13:22:27.561Z,79.10
2018-06-12T13:25:08.691Z,79.40
2018-06-12T13:27:37.714Z,79.20
2018-06-12T13:30:07.473Z,79.30
2018-06-12T13:32:36.516Z,79.20
2018-06-12T13:35:05.510Z,78.90
2018-06-12T13:37:34.523Z,78.20
2018-06-12T13:40:04.354Z,77.70
2018-06-12T13:42:33.360Z,77.50
2018-06-12T13:45:02.334Z,77.40
2018-06-12T13:47:31.400Z,77.00
2018-06-12T13:50:00.396Z,76.50
2018-06-12T13:52:29.380Z,76.60
2018-06-12T13:54:58.424Z,76.50
2018-06-12T13:57:27.527Z,76.00
2018-06-12T13:59:56.499Z,75.00
2018-06-12T14:02:25.647Z,75.30
2018-06-12T14:04:54.744Z,75.60
2018-06-12T14:07:23.808Z,75.30
2018-06-12T14:09:52.990Z,75.40
2018-06-12T14:12:22.026Z,75.80
2018-06-12T14:14:50.995Z,75.70
2018-06-12T14:17:19.974Z,75.70
2018-06-12T14:19:48.975Z,75.80
2018-06-12T14:22:17.930Z,76.20
2018-06-12T14:24:47.223Z,76.40
2018-06-12T14:27:16.263Z,76.80
2018-06-12T14:32:14.134Z,76.40
2018-06-12T14:34:43.146Z,76.50
2018-06-12T14:37:12.107Z,76.70
2018-06-12T14:39:42.638Z,76.80
2018-06-12T14:42:13.290Z,76.70
2018-06-12T14:44:43.183Z,76.30
2018-06-12T14:47:12.186Z,76.20
2018-06-12T14:49:43.291Z,76.40
2018-06-12T14:52:12.431Z,76.10
2018-06-12T14:54:41.443Z,75.90
2018-06-12T14:57:10.507Z,75.80
2018-06-12T14:59:39.506Z,75.70
2018-06-12T15:02:08.491Z,75.60
2018-06-12T15:04:37.592Z,75.60
2018-06-12T15:07:07.214Z,75.60
2018-06-12T15:09:36.559Z,75.40
2018-06-12T15:12:05.624Z,75.70
2018-06-12T15:14:34.686Z,75.80
2018-06-12T15:17:03.695Z,77.10
2018-06-12T15:19:32.724Z,76.40
2018-06-12T15:22:01.741Z,76.90
2018-06-12T15:24:30.759Z,77.10
2018-06-12T15:26:59.761Z,77.20
2018-06-12T15:29:28.954Z,77.40
2018-06-12T15:32:04.328Z,77.20
2018-06-12T15:34:34.804Z,77.10
2018-06-12T15:37:04.131Z,77.50
2018-06-12T15:39:33.429Z,77.80
2018-06-12T15:42:04.505Z,77.90
2018-06-12T15:44:38.240Z,77.70
2018-06-12T15:47:07.555Z,77.50
2018-06-12T15:52:51.447Z,77.50
2018-06-12T15:55:20.728Z,77.90
2018-06-12T15:57:50.040Z,78.10
2018-06-12T16:02:48.505Z,78.40
2018-06-12T16:05:18.224Z,78.30
2018-06-12T16:08:00.436Z,78.30
2018-06-12T16:10:29.780Z,78.40
2018-06-12T16:12:59.034Z,78.50
2018-06-12T16:15:28.328Z,78.90
2018-06-12T16:17:57.953Z,79.10
2018-06-12T16:20:27.981Z,79.10
2018-06-12T16:22:57.243Z,79.90
2018-06-12T16:25:26.516Z,78.80
2018-06-12T16:27:58.306Z,78.60
2018-06-12T16:30:27.572Z,78.90
2018-06-12T16:32:56.578Z,79.20
2018-06-12T16:35:26.973Z,79.50
2018-06-12T16:38:16.217Z,79.70
2018-06-12T16:40:51.246Z,79.70
2018-06-12T16:43:20.850Z,79.40
2018-06-12T16:45:49.859Z,79.10
2018-06-12T16:48:20.863Z,78.90
2018-06-12T16:50:49.978Z,78.40
2018-06-12T16:53:18.947Z,78.10
2018-06-12T16:55:48.404Z,78.30
2018-06-12T16:58:17.684Z,78.10
2018-06-12T17:00:47.564Z,78.10
2018-06-12T17:03:16.595Z,78.20
2018-06-12T17:05:50.638Z,79.00
2018-06-12T17:08:19.694Z,78.60
2018-06-12T17:10:51.503Z,78.60
2018-06-12T17:13:20.629Z,78.30
2018-06-12T17:15:49.659Z,78.40
2018-06-12T17:18:18.627Z,78.30
2018-06-12T17:20:49.040Z,78.00
2018-06-12T17:25:47.798Z,78.50
2018-06-12T17:28:16.830Z,78.50
2018-06-12T17:33:15.081Z,78.70
2018-06-12T17:35:44.662Z,78.90
2018-06-12T17:38:13.858Z,79.00
2018-06-12T17:40:43.034Z,79.00
2018-06-12T17:43:12.107Z,79.00
2018-06-12T17:45:41.194Z,78.90
2018-06-12T17:48:10.159Z,79.00
2018-06-12T17:50:39.542Z,79.20
2018-06-12T17:53:26.938Z,79.40
2018-06-12T17:55:56.182Z,79.60
2018-06-12T17:58:25.181Z,79.60
2018-06-12T18:00:54.251Z,79.60
2018-06-12T18:03:23.227Z,80.00
2018-06-12T18:05:52.255Z,80.20
2018-06-12T18:08:21.556Z,80.10
2018-06-12T18:10:50.817Z,80.10
2018-06-12T18:13:19.935Z,80.20
2018-06-12T18:15:49.683Z,80.30
2018-06-12T18:18:19.608Z,80.10
2018-06-12T18:20:49.424Z,80.10
2018-06-12T18:23:19.399Z,80.20
2018-06-12T18:25:48.407Z,80.20
2018-06-12T18:28:17.383Z,80.00
2018-06-12T18:30:46.381Z,79.90
2018-06-12T18:33:15.414Z,80.00
2018-06-12T18:35:44.387Z,80.00
2018-06-12T18:38:13.427Z,80.10
2018-06-12T18:40:42.715Z,80.00
2018-06-12T18:43:11.694Z,80.20
2018-06-12T18:45:57.094Z,80.30
2018-06-12T18:48:26.113Z,80.30
2018-06-12T18:50:55.359Z,80.30
2018-06-12T18:53:24.988Z,80.40
2018-06-12T18:55:54.511Z,80.60
2018-06-12T18:58:23.751Z,80.30
2018-06-12T19:00:53.116Z,80.60
2018-06-12T19:03:22.501Z,80.50
2018-06-12T19:05:53.881Z,80.40
2018-06-12T19:08:23.385Z,80.70
2018-06-12T19:10:52.540Z,80.90
2018-06-12T19:13:22.151Z,80.90
2018-06-12T19:15:51.867Z,80.90
2018-06-12T19:18:22.867Z,80.70
2018-06-12T19:20:52.461Z,80.50
2018-06-12T19:25:51.628Z,80.40
2018-06-12T19:28:20.907Z,80.40
2018-06-12T19:30:50.196Z,80.00
2018-06-12T19:33:20.200Z,80.20
2018-06-12T19:35:57.315Z,80.30
2018-06-12T19:38:26.748Z,80.10
2018-06-12T19:40:56.633Z,80.20
2018-06-12T19:43:25.924Z,80.30
2018-06-12T19:45:58.473Z,80.10
2018-06-12T19:48:31.101Z,80.10
2018-06-12T19:51:00.478Z,80.10
2018-06-12T19:53:29.848Z,79.80
2018-06-12T19:55:59.122Z,79.70
2018-06-12T19:58:28.414Z,79.70
2018-06-12T20:00:57.804Z,79.60
2018-06-12T20:03:27.167Z,79.60
2018-06-12T20:05:56.642Z,79.90
2018-06-12T20:08:27.095Z,80.00
2018-06-12T20:10:56.099Z,79.90
2018-06-12T20:13:25.181Z,79.80
2018-06-12T20:18:22.710Z,79.70
2018-06-12T20:20:51.727Z,80.00
2018-06-12T20:23:20.712Z,80.10
2018-06-12T20:25:49.718Z,80.10
2018-06-12T20:28:18.835Z,80.10
2018-06-12T20:30:48.335Z,80.30
2018-06-12T20:33:17.339Z,80.40
2018-06-12T20:35:46.374Z,80.00
2018-06-12T20:38:15.342Z,81.40
2018-06-12T20:40:46.091Z,80.60
2018-06-12T20:43:25.799Z,80.90
2018-06-12T20:45:54.829Z,81.40
2018-06-12T20:48:23.850Z,81.80
2018-06-12T20:50:52.844Z,81.90
2018-06-12T20:53:21.861Z,82.00
2018-06-12T20:55:50.895Z,81.90
2018-06-12T20:58:21.190Z,81.90
2018-06-12T21:00:50.195Z,82.00
2018-06-12T21:03:19.158Z,82.30
2018-06-12T21:05:48.198Z,82.30
2018-06-12T21:08:17.189Z,82.10
2018-06-12T21:10:46.150Z,82.00
2018-06-12T21:13:15.667Z,82.00
2018-06-12T21:15:47.927Z,81.90
2018-06-12T21:18:16.915Z,81.60
2018-06-12T21:20:45.935Z,81.20
2018-06-12T21:23:14.890Z,80.90
2018-06-12T21:25:43.899Z,80.80
2018-06-12T21:30:43.248Z,80.00
2018-06-12T21:33:12.878Z,79.70
2018-06-12T21:35:41.915Z,79.40
2018-06-12T21:40:39.567Z,79.10
2018-06-12T21:43:08.559Z,79.90
2018-06-12T21:45:38.967Z,79.00
2018-06-12T21:48:07.962Z,79.00
2018-06-12T21:53:05.519Z,79.00
2018-06-12T21:55:34.542Z,79.10
2018-06-12T21:58:03.494Z,79.20
2018-06-12T22:00:34.051Z,79.00
2018-06-12T22:03:03.067Z,79.00
2018-06-12T22:05:32.038Z,79.00
2018-06-12T22:08:01.072Z,79.10
2018-06-12T22:10:30.096Z,79.40
2018-06-12T22:12:59.054Z,79.40
2018-06-12T22:15:28.131Z,79.60
2018-06-12T22:17:57.230Z,79.50
2018-06-12T22:20:26.567Z,79.40
2018-06-12T22:22:55.567Z,79.40
2018-06-12T22:25:24.970Z,79.50
2018-06-12T22:27:54.798Z,79.60
2018-06-12T22:30:23.775Z,79.60
2018-06-12T22:32:52.733Z,79.20
2018-06-12T22:35:21.731Z,78.70
2018-06-12T22:37:50.720Z,78.40
2018-06-12T22:40:20.890Z,78.20
2018-06-12T22:42:49.897Z,78.20
2018-06-12T22:45:18.882Z,77.60
2018-06-12T22:47:47.870Z,78.20
2018-06-12T22:50:16.871Z,78.30
2018-06-12T22:52:45.827Z,78.40
2018-06-12T22:55:14.843Z,78.40
2018-06-12T22:57:43.852Z,78.20
2018-06-12T23:00:19.470Z,78.20
2018-06-12T23:02:48.464Z,78.10
2018-06-12T23:05:17.410Z,78.10
2018-06-12T23:07:46.402Z,78.30
2018-06-12T23:10:15.461Z,78.60
2018-06-12T23:12:44.419Z,78.40
2018-06-12T23:15:13.454Z,78.50
2018-06-12T23:17:42.449Z,78.70
2018-06-12T23:20:22.511Z,78.80
2018-06-12T23:22:51.519Z,78.90
2018-06-12T23:25:20.675Z,78.60
2018-06-12T23:27:49.658Z,78.50
2018-06-12T23:30:18.663Z,78.60
2018-06-12T23:32:47.627Z,78.80
2018-06-12T23:35:16.629Z,78.80
2018-06-12T23:37:45.633Z,78.70
2018-06-12T23:40:14.662Z,78.50
2018-06-12T23:42:43.694Z,79.10
2018-06-12T23:45:24.595Z,78.30
2018-06-12T23:47:53.586Z,78.50
2018-06-12T23:50:23.537Z,78.50
2018-06-12T23:52:52.727Z,78.30
2018-06-12T23:55:21.710Z,78.40
2018-06-12T23:57:50.726Z,79.20
